EGNX - East Midlands
Distance from station: E 5mi, 14km
Updated: 12/17/2017 5:50am
Mostly Cloudy
Mostly Cloudy
 Wind from SSW
Wind: SSW 17 mph , 28 km/h
Temperature: 43°F , 6°C
Wind Chill: 35°F , 2°C
Dew Point: 43°F , 6°C
Humidity: 100%
Barometer: 30.03 inHg , 1017 hPa
Clouds: Mostly Cloudy
Visibility: 5 miles , 8 km
Cloud details: Mostly Cloudy 600 ft
Mostly Cloudy 3000 ft
2017/12/17 13:50 EGNX 171350Z 21015KT 8000 BKN006 BKN030 06/06 Q1017